createdAt,value
2018-11-14T00:01:46.234Z,16.03
2018-11-14T00:04:19.677Z,17.17
2018-11-14T00:06:53.656Z,14.83
2018-11-14T00:09:28.156Z,16.30
2018-11-14T00:12:02.159Z,17.23
2018-11-14T00:14:36.449Z,22.53
2018-11-14T00:17:10.455Z,20.27
2018-11-14T00:19:44.823Z,24.17
2018-11-14T00:22:18.251Z,24.90
2018-11-14T00:24:53.198Z,21.00
2018-11-14T00:27:26.844Z,22.77
2018-11-14T00:30:00.960Z,18.03
2018-11-14T00:32:34.843Z,19.50
2018-11-14T00:35:09.235Z,16.97
2018-11-14T00:37:46.578Z,18.23
2018-11-14T00:40:20.956Z,20.37
2018-11-14T00:42:55.818Z,18.77
2018-11-14T00:45:29.527Z,18.63
2018-11-14T00:48:03.469Z,18.83
2018-11-14T00:50:37.561Z,17.83
2018-11-14T00:53:12.137Z,20.00
2018-11-14T00:55:46.744Z,19.50
2018-11-14T00:58:20.876Z,19.33
2018-11-14T01:00:54.928Z,19.60
2018-11-14T01:10:31.580Z,19.93
2018-11-14T01:13:05.331Z,18.70
2018-11-14T01:15:39.156Z,22.90
2018-11-14T01:18:12.624Z,20.83
2018-11-14T01:20:46.572Z,20.03
2018-11-14T01:23:20.282Z,15.50
2018-11-14T01:25:53.982Z,11.90
2018-11-14T01:28:27.465Z,12.77
2018-11-14T01:31:01.624Z,11.93
2018-11-14T01:33:37.297Z,13.50
2018-11-14T01:36:13.097Z,13.90
2018-11-14T01:38:48.612Z,11.33
2018-11-14T01:41:22.538Z,13.53
2018-11-14T01:43:56.913Z,13.10
2018-11-14T01:46:30.401Z,13.30
2018-11-14T01:49:05.647Z,12.30
2018-11-14T01:51:39.289Z,13.70
2018-11-14T01:54:13.398Z,12.87
2018-11-14T01:56:47.070Z,12.87
2018-11-14T01:59:21.583Z,13.77
2018-11-14T02:01:55.554Z,13.80
2018-11-14T02:04:31.525Z,14.33
2018-11-14T02:07:05.333Z,13.73
2018-11-14T02:09:39.370Z,12.93
2018-11-14T02:12:13.050Z,14.10
2018-11-14T02:14:46.701Z,13.80
2018-11-14T02:17:20.961Z,13.83
2018-11-14T02:19:54.804Z,15.17
2018-11-14T02:22:28.814Z,13.73
2018-11-14T02:25:02.528Z,12.13
2018-11-14T02:27:37.487Z,12.18
2018-11-14T02:30:13.708Z,12.50
2018-11-14T02:32:47.531Z,15.38
2018-11-14T02:35:21.175Z,17.00
2018-11-14T02:37:55.330Z,12.23
2018-11-14T02:40:29.841Z,16.67
2018-11-14T02:43:03.877Z,14.33
2018-11-14T02:45:37.281Z,14.30
2018-11-14T02:51:11.252Z,12.93
2018-11-14T02:53:44.827Z,13.37
2018-11-14T02:56:19.622Z,13.87
2018-11-14T02:58:53.548Z,16.17
2018-11-14T03:01:27.739Z,14.40
2018-11-14T03:04:01.506Z,17.03
2018-11-14T03:06:35.150Z,10.67
2018-11-14T03:09:10.123Z,10.90
2018-11-14T03:11:43.667Z,12.40
2018-11-14T03:14:17.405Z,11.10
2018-11-14T03:16:51.577Z,11.37
2018-11-14T03:19:25.973Z,15.68
2018-11-14T03:21:59.922Z,14.00
2018-11-14T03:24:34.196Z,13.30
2018-11-14T03:27:08.333Z,12.73
2018-11-14T03:29:42.318Z,13.40
2018-11-14T03:32:16.305Z,15.98
2018-11-14T03:34:50.145Z,13.93
2018-11-14T03:37:23.949Z,12.80
2018-11-14T03:39:58.079Z,13.37
2018-11-14T03:42:33.559Z,16.32
2018-11-14T03:45:07.317Z,18.57
2018-11-14T03:47:41.167Z,15.65
2018-11-14T03:50:15.342Z,23.18
2018-11-14T03:52:49.185Z,15.35
2018-11-14T03:55:23.250Z,17.02
2018-11-14T03:57:57.066Z,21.47
2018-11-14T04:00:40.936Z,18.55
2018-11-14T04:03:22.089Z,18.63
2018-11-14T04:06:03.938Z,23.98
2018-11-14T04:08:47.731Z,15.93
2018-11-14T04:11:36.679Z,18.12
2018-11-14T04:14:24.075Z,18.00
2018-11-14T04:17:18.238Z,17.83
2018-11-14T04:19:59.564Z,15.97
2018-11-14T04:23:01.775Z,16.40
2018-11-14T04:25:44.016Z,19.02
2018-11-14T04:28:29.215Z,20.03
2018-11-14T04:31:13.737Z,22.52
2018-11-14T04:34:03.760Z,16.65
2018-11-14T04:36:48.157Z,13.88
2018-11-14T04:39:28.559Z,21.07
2018-11-14T04:42:07.050Z,16.75
2018-11-14T04:44:56.309Z,15.57
2018-11-14T04:47:42.609Z,14.40
2018-11-14T04:50:27.469Z,14.20
2018-11-14T04:53:09.023Z,15.38
2018-11-14T04:55:56.505Z,13.03
2018-11-14T04:58:41.650Z,14.33
2018-11-14T05:01:17.687Z,16.82
2018-11-14T05:03:51.296Z,16.20
2018-11-14T05:06:24.937Z,15.32
2018-11-14T05:08:59.482Z,14.15
2018-11-14T05:11:33.372Z,14.63
2018-11-14T05:14:15.495Z,14.73
2018-11-14T05:16:53.753Z,13.98
2018-11-14T05:19:28.836Z,13.35
2018-11-14T05:22:02.654Z,13.83
2018-11-14T05:24:37.518Z,12.80
2018-11-14T05:27:11.783Z,12.47
2018-11-14T05:29:45.266Z,13.63
2018-11-14T05:32:19.080Z,17.57
2018-11-14T05:34:52.975Z,15.77
2018-11-14T05:37:26.734Z,15.67
2018-11-14T05:40:01.248Z,15.90
2018-11-14T05:42:35.216Z,16.37
2018-11-14T05:45:12.447Z,15.57
2018-11-14T05:47:47.358Z,16.67
2018-11-14T05:50:24.182Z,16.87
2018-11-14T05:52:57.914Z,16.90
2018-11-14T05:55:31.850Z,16.10
2018-11-14T05:58:05.738Z,16.43
2018-11-14T06:00:39.279Z,17.67
2018-11-14T06:08:17.438Z,14.07
2018-11-14T06:10:51.251Z,15.13
2018-11-14T06:13:25.236Z,15.07
2018-11-14T06:15:59.258Z,13.67
2018-11-14T06:18:33.357Z,12.83
2018-11-14T06:21:08.080Z,11.63
2018-11-14T06:23:42.083Z,10.50
2018-11-14T06:26:17.309Z,11.33
2018-11-14T06:28:50.585Z,10.67
2018-11-14T06:31:24.367Z,11.43
2018-11-14T06:33:58.456Z,13.65
2018-11-14T06:36:33.523Z,14.50
2018-11-14T06:39:09.108Z,14.53
2018-11-14T06:41:43.179Z,17.27
2018-11-14T06:44:17.604Z,17.25
2018-11-14T06:46:53.193Z,20.60
2018-11-14T06:49:26.595Z,18.97
2018-11-14T06:52:00.429Z,15.83
2018-11-14T06:54:34.328Z,18.30
2018-11-14T06:57:08.066Z,19.63
2018-11-14T06:59:41.642Z,26.00
2018-11-14T07:02:16.605Z,27.00
2018-11-14T07:04:51.390Z,21.77
2018-11-14T07:07:25.246Z,22.15
2018-11-14T07:10:01.246Z,20.87
2018-11-14T07:12:37.685Z,22.23
2018-11-14T07:15:19.166Z,22.87
2018-11-14T07:17:53.785Z,21.00
2018-11-14T07:20:33.450Z,19.53
2018-11-14T07:23:07.516Z,19.73
2018-11-14T07:25:41.379Z,22.13
2018-11-14T07:28:16.474Z,22.17
2018-11-14T07:30:53.936Z,19.87
2018-11-14T07:33:28.653Z,17.47
2018-11-14T07:36:03.579Z,18.83
2018-11-14T07:38:41.833Z,16.50
2018-11-14T07:41:19.594Z,14.87
2018-11-14T07:43:53.447Z,15.20
2018-11-14T07:46:28.453Z,14.90
2018-11-14T07:49:03.395Z,15.67
2018-11-14T07:51:39.443Z,14.77
2018-11-14T07:54:13.178Z,14.53
2018-11-14T07:56:47.087Z,14.53
2018-11-14T07:59:20.663Z,20.03
2018-11-14T08:01:55.023Z,15.60
2018-11-14T08:04:28.489Z,16.17
2018-11-14T08:07:02.382Z,15.97
2018-11-14T08:09:36.691Z,15.20
2018-11-14T08:12:10.618Z,16.43
2018-11-14T08:14:45.273Z,15.07
2018-11-14T08:17:19.221Z,15.23
2018-11-14T08:19:53.934Z,14.10
2018-11-14T08:22:27.790Z,14.60
2018-11-14T08:25:01.702Z,13.27
2018-11-14T08:27:35.386Z,13.40
2018-11-14T08:30:10.479Z,13.87
2018-11-14T08:32:45.248Z,13.87
2018-11-14T08:35:19.049Z,14.17
2018-11-14T08:37:53.443Z,12.78
2018-11-14T08:40:27.498Z,13.93
2018-11-14T08:43:01.385Z,12.20
2018-11-14T08:45:36.841Z,13.32
2018-11-14T08:48:11.388Z,12.67
2018-11-14T08:50:46.562Z,14.07
2018-11-14T08:53:20.172Z,13.50
2018-11-14T08:55:58.310Z,13.30
2018-11-14T08:58:33.571Z,15.40
2018-11-14T09:01:07.550Z,14.77
2018-11-14T09:03:41.749Z,13.50
2018-11-14T09:06:15.891Z,13.67
2018-11-14T09:08:50.595Z,14.00
2018-11-14T09:11:24.870Z,16.00
2018-11-14T09:13:59.001Z,14.00
2018-11-14T09:16:33.609Z,14.60
2018-11-14T09:19:07.493Z,15.13
2018-11-14T09:21:42.058Z,15.17
2018-11-14T09:24:16.551Z,14.58
2018-11-14T09:26:50.522Z,14.37
2018-11-14T09:29:24.151Z,13.60
2018-11-14T09:31:58.299Z,14.00
2018-11-14T09:34:33.547Z,13.80
2018-11-14T09:37:07.786Z,13.68
2018-11-14T09:39:43.140Z,14.17
2018-11-14T09:42:16.985Z,14.07
2018-11-14T09:44:51.488Z,14.17
2018-11-14T09:47:26.366Z,13.10
2018-11-14T09:49:59.979Z,13.07
2018-11-14T09:52:34.414Z,13.77
2018-11-14T09:55:08.509Z,12.88
2018-11-14T09:57:42.734Z,12.40
2018-11-14T10:00:19.460Z,12.95
2018-11-14T10:02:54.194Z,13.30
2018-11-14T10:05:29.657Z,12.47
2018-11-14T10:08:04.000Z,13.27
2018-11-14T10:10:37.684Z,12.37
2018-11-14T10:13:11.937Z,13.63
2018-11-14T10:15:46.586Z,12.67
2018-11-14T10:18:20.054Z,12.67
2018-11-14T10:20:54.045Z,13.63
2018-11-14T10:23:27.686Z,13.13
2018-11-14T10:26:01.837Z,13.37
2018-11-14T10:28:35.968Z,13.20
2018-11-14T10:31:09.281Z,13.33
2018-11-14T10:33:45.636Z,13.60
2018-11-14T10:36:19.324Z,13.03
2018-11-14T10:38:53.464Z,13.10
2018-11-14T10:41:27.214Z,14.70
2018-11-14T10:44:01.556Z,15.07
2018-11-14T10:46:36.052Z,15.43
2018-11-14T10:49:10.106Z,15.17
2018-11-14T10:51:44.225Z,14.50
2018-11-14T10:54:18.662Z,15.17
2018-11-14T10:56:52.739Z,14.93
2018-11-14T10:59:27.866Z,15.30
2018-11-14T11:02:06.608Z,14.90
2018-11-14T11:04:44.333Z,14.70
2018-11-14T11:07:22.368Z,15.17
2018-11-14T11:10:00.379Z,14.50
2018-11-14T11:12:39.477Z,16.03
2018-11-14T11:15:28.771Z,15.60
2018-11-14T11:18:08.479Z,14.63
2018-11-14T11:20:42.682Z,15.53
2018-11-14T11:23:16.436Z,17.47
2018-11-14T11:25:50.813Z,16.40
2018-11-14T11:28:24.584Z,16.80
2018-11-14T11:30:58.702Z,15.70
2018-11-14T11:33:32.474Z,14.58
2018-11-14T11:36:06.006Z,14.40
2018-11-14T11:38:40.873Z,16.87
2018-11-14T11:41:16.396Z,18.27
2018-11-14T11:43:51.109Z,18.03
2018-11-14T11:46:25.133Z,20.13
2018-11-14T11:48:59.070Z,21.25
2018-11-14T11:51:33.116Z,19.77
2018-11-14T11:54:07.157Z,21.37
2018-11-14T11:56:43.376Z,23.27
2018-11-14T11:59:17.212Z,20.88
2018-11-14T12:01:51.928Z,19.93
2018-11-14T12:04:25.800Z,18.33
2018-11-14T12:06:59.419Z,19.17
2018-11-14T12:09:33.135Z,19.73
2018-11-14T12:12:06.990Z,19.62
2018-11-14T12:14:40.861Z,20.15
2018-11-14T12:17:15.675Z,19.97
2018-11-14T12:19:49.903Z,19.70
2018-11-14T12:22:24.852Z,20.17
2018-11-14T12:24:58.604Z,20.70
2018-11-14T12:27:32.683Z,18.57
2018-11-14T12:30:06.529Z,20.53
2018-11-14T12:32:43.182Z,20.73
2018-11-14T12:35:18.653Z,19.17
2018-11-14T12:37:52.553Z,20.50
2018-11-14T12:40:26.879Z,20.40
2018-11-14T12:43:03.029Z,17.93
2018-11-14T12:45:37.590Z,19.27
2018-11-14T12:48:12.282Z,19.80
2018-11-14T12:50:47.488Z,17.47
2018-11-14T12:53:20.933Z,19.23
2018-11-14T12:55:55.075Z,30.03
2018-11-14T12:58:31.313Z,28.80
2018-11-14T13:01:05.320Z,30.83
2018-11-14T13:03:41.989Z,26.73
2018-11-14T13:06:16.606Z,24.70
2018-11-14T13:08:50.353Z,25.83
2018-11-14T13:11:24.422Z,26.93
2018-11-14T13:13:58.858Z,26.97
2018-11-14T13:16:32.750Z,25.10
2018-11-14T13:19:06.664Z,23.67
2018-11-14T13:21:40.341Z,26.43
2018-11-14T13:24:14.342Z,25.17
2018-11-14T13:26:48.567Z,26.43
2018-11-14T13:29:23.352Z,27.50
2018-11-14T13:31:57.503Z,28.90
2018-11-14T13:34:33.365Z,27.95
2018-11-14T13:37:07.014Z,28.30
2018-11-14T13:39:41.079Z,27.33
2018-11-14T13:42:15.454Z,26.82
2018-11-14T13:44:50.358Z,27.40
2018-11-14T13:47:23.978Z,28.47
2018-11-14T13:49:59.226Z,28.43
2018-11-14T13:52:34.256Z,29.83
2018-11-14T13:55:09.067Z,28.80
2018-11-14T13:57:43.836Z,30.93
2018-11-14T14:00:20.694Z,29.40
2018-11-14T14:02:55.431Z,27.17
2018-11-14T14:05:29.385Z,28.63
2018-11-14T14:08:07.213Z,28.93
2018-11-14T14:10:41.235Z,28.70
2018-11-14T14:13:15.102Z,27.53
2018-11-14T14:15:49.387Z,28.67
2018-11-14T14:18:23.049Z,29.27
2018-11-14T14:20:57.160Z,33.27
2018-11-14T14:23:31.010Z,32.47
2018-11-14T14:26:05.238Z,31.20
2018-11-14T14:28:39.343Z,30.32
2018-11-14T14:31:13.830Z,29.70
2018-11-14T14:33:48.322Z,29.47
2018-11-14T14:36:22.685Z,29.03
2018-11-14T14:38:58.452Z,29.97
2018-11-14T14:41:32.259Z,29.42
2018-11-14T14:44:07.009Z,30.03
2018-11-14T14:46:41.051Z,30.77
2018-11-14T14:49:14.787Z,28.70
2018-11-14T14:51:48.754Z,31.67
2018-11-14T14:54:22.659Z,30.63
2018-11-14T14:56:56.331Z,33.20
2018-11-14T14:59:30.524Z,30.47
2018-11-14T15:02:05.617Z,30.40
2018-11-14T15:04:39.513Z,31.20
2018-11-14T15:07:13.435Z,30.87
2018-11-14T15:09:47.352Z,35.30
2018-11-14T15:12:22.744Z,33.80
2018-11-14T15:14:57.697Z,30.77
2018-11-14T15:17:32.686Z,35.13
2018-11-14T15:20:09.286Z,29.50
2018-11-14T15:22:44.443Z,29.47
2018-11-14T15:25:19.875Z,29.50
2018-11-14T15:27:54.212Z,30.03
2018-11-14T15:30:29.445Z,30.00
2018-11-14T15:33:03.811Z,29.30
2018-11-14T15:35:36.928Z,31.37
2018-11-14T15:38:11.494Z,30.63
2018-11-14T15:40:44.864Z,30.83
2018-11-14T15:43:19.225Z,30.73
2018-11-14T15:45:52.800Z,29.30
2018-11-14T15:48:26.487Z,30.90
2018-11-14T15:51:00.577Z,35.27
2018-11-14T15:53:34.245Z,34.90
2018-11-14T15:56:08.289Z,35.33
2018-11-14T15:58:43.241Z,36.83
2018-11-14T16:01:17.481Z,39.90
2018-11-14T16:03:53.304Z,37.00
2018-11-14T16:06:27.189Z,33.50
2018-11-14T16:09:01.082Z,33.43
2018-11-14T16:11:36.450Z,32.23
2018-11-14T16:14:10.534Z,33.40
2018-11-14T16:16:44.990Z,33.87
2018-11-14T16:19:20.043Z,35.87
2018-11-14T16:21:54.203Z,35.63
2018-11-14T16:24:28.182Z,35.17
2018-11-14T16:27:03.877Z,36.63
2018-11-14T16:29:38.099Z,45.87
2018-11-14T16:32:12.759Z,45.23
2018-11-14T16:34:46.802Z,49.63
2018-11-14T16:37:20.369Z,49.40
2018-11-14T16:39:55.780Z,57.58
2018-11-14T16:42:29.796Z,55.33
2018-11-14T16:45:03.880Z,47.97
2018-11-14T16:47:37.838Z,42.63
2018-11-14T16:50:13.113Z,52.77
2018-11-14T16:52:46.297Z,52.87
2018-11-14T16:55:22.843Z,50.10
2018-11-14T16:57:59.238Z,45.37
2018-11-14T17:00:33.667Z,40.30
2018-11-14T17:03:07.752Z,39.60
2018-11-14T17:05:42.308Z,43.03
2018-11-14T17:08:16.075Z,44.67
2018-11-14T17:10:50.904Z,40.00
2018-11-14T17:13:24.949Z,36.87
2018-11-14T17:15:59.705Z,32.83
2018-11-14T17:18:34.256Z,34.97
2018-11-14T17:21:07.949Z,41.73
2018-11-14T17:23:43.235Z,42.70
2018-11-14T17:26:17.288Z,40.00
2018-11-14T17:28:55.385Z,41.97
2018-11-14T17:31:30.168Z,39.60
2018-11-14T17:34:03.753Z,36.97
2018-11-14T17:36:39.133Z,32.00
2018-11-14T17:39:15.015Z,33.83
2018-11-14T17:41:49.493Z,36.13
2018-11-14T17:44:23.794Z,35.80
2018-11-14T17:46:57.440Z,34.53
2018-11-14T17:49:31.293Z,37.60
2018-11-14T17:52:08.519Z,38.97
2018-11-14T17:54:45.764Z,36.43
2018-11-14T17:57:21.100Z,43.07
2018-11-14T17:59:56.138Z,37.97
2018-11-14T18:02:31.759Z,37.53
2018-11-14T18:05:06.308Z,36.23
2018-11-14T18:07:41.038Z,37.07
2018-11-14T18:10:17.176Z,36.27
2018-11-14T18:12:51.995Z,35.77
2018-11-14T18:15:26.486Z,36.50
2018-11-14T18:18:00.578Z,37.23
2018-11-14T18:23:07.851Z,41.20
2018-11-14T18:25:41.751Z,36.98
2018-11-14T18:28:16.145Z,35.93
2018-11-14T18:30:50.356Z,35.10
2018-11-14T18:33:24.444Z,35.23
2018-11-14T18:35:58.498Z,35.20
2018-11-14T18:38:33.891Z,35.27
2018-11-14T18:41:07.737Z,33.53
2018-11-14T18:43:41.371Z,41.33
2018-11-14T18:46:17.010Z,38.93
2018-11-14T18:48:51.627Z,34.00
2018-11-14T18:51:26.693Z,31.93
2018-11-14T18:54:02.194Z,35.27
2018-11-14T18:56:35.980Z,34.30
2018-11-14T18:59:11.245Z,36.07
2018-11-14T19:01:45.266Z,36.50
2018-11-14T19:04:19.495Z,38.47
2018-11-14T19:06:53.444Z,37.33
2018-11-14T19:09:29.257Z,34.53
2018-11-14T19:12:03.113Z,32.50
2018-11-14T19:14:36.926Z,32.60
2018-11-14T19:17:09.957Z,35.43
2018-11-14T19:19:43.882Z,34.37
2018-11-14T19:22:17.526Z,33.13
2018-11-14T19:24:51.917Z,34.30
2018-11-14T19:27:25.523Z,35.03
2018-11-14T19:29:59.920Z,34.33
2018-11-14T19:32:33.811Z,32.27
2018-11-14T19:35:08.290Z,33.73
2018-11-14T19:37:42.896Z,34.67
2018-11-14T19:40:20.131Z,33.70
2018-11-14T19:42:56.676Z,36.37
2018-11-14T19:45:32.607Z,33.30
2018-11-14T19:48:06.109Z,36.43
2018-11-14T19:50:40.864Z,34.63
2018-11-14T19:53:15.026Z,33.20
2018-11-14T19:55:48.775Z,32.37
2018-11-14T19:58:22.821Z,34.10
2018-11-14T20:00:56.765Z,35.53
2018-11-14T20:03:31.169Z,33.67
2018-11-14T20:06:06.490Z,33.80
2018-11-14T20:08:40.503Z,32.48
2018-11-14T20:11:15.588Z,31.80
2018-11-14T20:13:49.986Z,32.07
2018-11-14T20:16:23.912Z,32.13
2018-11-14T20:18:58.437Z,32.90
2018-11-14T20:21:33.152Z,30.87
2018-11-14T20:24:07.028Z,31.80
2018-11-14T20:26:42.224Z,31.90
2018-11-14T20:29:15.891Z,32.27
2018-11-14T20:31:50.507Z,31.30
2018-11-14T20:34:24.056Z,30.87
2018-11-14T20:36:58.226Z,31.10
2018-11-14T20:39:32.768Z,30.67
2018-11-14T20:42:07.547Z,31.53
2018-11-14T20:44:41.694Z,30.63
2018-11-14T20:47:15.338Z,32.97
2018-11-14T20:49:49.463Z,32.33
2018-11-14T20:52:23.520Z,31.37
2018-11-14T20:54:57.259Z,31.53
2018-11-14T20:57:31.064Z,32.57
2018-11-14T21:00:04.840Z,32.57
2018-11-14T21:02:39.802Z,31.70
2018-11-14T21:05:14.532Z,31.70
2018-11-14T21:07:48.334Z,31.80
2018-11-14T21:10:23.587Z,31.53
2018-11-14T21:12:58.458Z,29.17
2018-11-14T21:15:33.755Z,29.30
2018-11-14T21:18:08.093Z,30.70
2018-11-14T21:20:42.113Z,30.10
2018-11-14T21:23:15.857Z,29.97
2018-11-14T21:25:52.063Z,31.63
2018-11-14T21:28:27.072Z,32.00
2018-11-14T21:31:01.635Z,30.23
2018-11-14T21:33:35.406Z,30.97
2018-11-14T21:36:11.046Z,30.63
2018-11-14T21:38:45.437Z,33.43
2018-11-14T21:41:19.285Z,33.50
2018-11-14T21:43:54.115Z,33.10
2018-11-14T21:46:28.849Z,31.67
2018-11-14T21:49:05.042Z,31.87
2018-11-14T21:51:39.436Z,31.03
2018-11-14T21:54:13.331Z,31.90
2018-11-14T21:56:48.199Z,35.03
2018-11-14T21:59:22.099Z,35.55
2018-11-14T22:01:55.867Z,32.60
2018-11-14T22:04:29.608Z,29.77
2018-11-14T22:07:02.985Z,29.13
2018-11-14T22:09:37.263Z,30.67
2018-11-14T22:12:11.176Z,30.73
2018-11-14T22:14:46.397Z,30.40
2018-11-14T22:17:20.435Z,30.77
2018-11-14T22:19:54.289Z,30.65
2018-11-14T22:22:28.217Z,32.67
2018-11-14T22:25:02.368Z,30.87
2018-11-14T22:27:36.110Z,31.40
2018-11-14T22:30:14.346Z,28.77
2018-11-14T22:32:48.769Z,29.00
2018-11-14T22:35:23.872Z,31.13
2018-11-14T22:37:58.196Z,29.27
2018-11-14T22:40:32.880Z,26.50
2018-11-14T22:43:08.027Z,29.23
2018-11-14T22:45:43.292Z,31.23
2018-11-14T22:48:18.225Z,29.63
2018-11-14T22:50:52.915Z,28.77
2018-11-14T22:53:27.246Z,27.73
2018-11-14T22:56:01.490Z,28.97
2018-11-14T22:58:35.761Z,28.83
2018-11-14T23:01:10.566Z,27.27
2018-11-14T23:03:44.780Z,28.47
2018-11-14T23:06:22.604Z,28.10
2018-11-14T23:08:57.565Z,28.23
2018-11-14T23:11:31.618Z,30.60
2018-11-14T23:14:05.543Z,29.07
2018-11-14T23:16:41.348Z,30.00
2018-11-14T23:19:15.230Z,27.77
2018-11-14T23:21:49.090Z,31.80
2018-11-14T23:24:23.404Z,29.17
2018-11-14T23:26:58.470Z,30.73
2018-11-14T23:29:34.032Z,30.50
2018-11-14T23:32:07.947Z,32.43
2018-11-14T23:34:45.498Z,32.43
2018-11-14T23:37:20.666Z,33.27
2018-11-14T23:39:54.756Z,35.97
2018-11-14T23:42:28.722Z,34.70
2018-11-14T23:45:03.220Z,35.83
2018-11-14T23:47:37.076Z,36.38
2018-11-14T23:50:16.210Z,39.00
2018-11-14T23:52:54.434Z,42.60
2018-11-14T23:55:29.367Z,41.87
2018-11-14T23:58:03.139Z,37.10
